Silver Ginny — V7EE6 — position and weather

sailwx.info

Track history (hours):
 
Tides and Currents Weather Stations Pressure Air Temp Water Temp Dewpoint Dewpoint Depression Visibility Wind Speed Wind Dir Waves Ship Positions

Silver Ginny

Last reported at 2018-Jun-01 08:07 UTC. Time now 2018-Jun-23 15:28 UTC.
Position N 01°30' E 103°08'.
Warning: this ship's position is 22 days out of date.

Length 183 m; draft 11.5 m.

Type: Tanker. MMSI: 538005462.

Date/timePositionNaut miles runAvg speedWind from/ knotsBaromVisibWave heightAir tempDewpointWater temp
2018-Jun-01 08:07N 01°30' E 103°08'513.5
2018-Jun-01 07:46N 01°27' E 103°11'313.1
2018-Jun-01 07:30N 01°25' E 103°14'712.9
2018-Jun-01 06:58N 01°20' E 103°19'612.1
2018-Jun-01 06:27N 01°16' E 103°23'510.8
2018-Jun-01 05:59N 01°13' E 103°28'510.4
2018-Jun-01 05:29N 01°12' E 103°33'510.2
2018-Jun-01 04:59N 01°11' E 103°38'510.2
2018-Jun-01 04:30N 01°09' E 103°42'5 9.5
2018-Jun-01 04:00N 01°10' E 103°47'510.3
2018-Jun-01 03:30N 01°12' E 103°51'510.5
2018-Jun-01 03:00N 01°15' E 103°56'3 5.6
2018-Jun-01 02:30N 01°17' E 103°58'1 0.9
2018-Jun-01 01:58N 01°17' E 103°58'0 0.0
2018-Jun-01 01:19N 01°17' E 103°58'0 0.2
2018-Jun-01 00:57N 01°17' E 103°58'0 0.0
2018-Jun-01 00:28N 01°17' E 103°58'0 0.0
2018-May-31 23:51N 01°17' E 103°58'0 0.2
2018-May-31 23:27N 01°17' E 103°58'0 0.1
2018-May-31 22:57N 01°17' E 103°58'0 0.0
2018-May-31 22:30N 01°17' E 103°58'0 0.0
2018-May-31 21:57N 01°17' E 103°58'0 0.0
2018-May-31 21:22N 01°17' E 103°58'0 0.0
2018-May-31 20:57N 01°17' E 103°58'0 0.0
2018-May-31 20:28N 01°17' E 103°58'0 0.0
2018-May-31 19:58N 01°17' E 103°58'0 0.0
2018-May-31 19:28N 01°17' E 103°58'0 0.0
2018-May-31 18:57N 01°17' E 103°58'0 0.1
2018-May-31 18:24N 01°17' E 103°58'0 0.0
2018-May-31 18:00N 01°17' E 103°58'0 0.0
2018-May-31 17:25N 01°17' E 103°58'0 0.0
2018-May-31 16:58N 01°17' E 103°58'0 0.4
2018-May-31 16:28N 01°17' E 103°58'0 0.1
2018-May-31 15:51N 01°17' E 103°58'0 0.0
2018-May-31 15:22N 01°17' E 103°58'0 0.2
2018-May-31 15:00N 01°17' E 103°58'0 0.0
2018-May-31 14:30N 01°17' E 103°58'0 0.0
2018-May-31 13:57N 01°17' E 103°58'0 0.0
2018-May-31 13:07N 01°17' E 103°58'0 0.0
2018-May-31 12:58N 01°17' E 103°58'0 0.0
2018-May-31 12:28N 01°17' E 103°58'0 0.0
2018-May-31 11:57N 01°17' E 103°58'0 0.0
2018-May-31 11:30N 01°17' E 103°58'0 0.0
2018-May-31 10:46N 01°17' E 103°58'0 0.0
2018-May-31 10:19N 01°17' E 103°58'0 0.0
2018-May-31 09:55N 01°17' E 103°58'0 0.0
2018-May-31 09:25N 01°17' E 103°58'0 0.0
2018-May-31 08:52N 01°17' E 103°58'0 0.0
2018-May-31 08:28N 01°17' E 103°58'0 0.2
2018-May-31 08:00N 01°17' E 103°58'1 2.8
2018-May-31 07:30N 01°16' E 103°58'3 5.8
2018-May-31 07:00N 01°16' E 104°01'3 6.2
2018-May-31 06:30N 01°16' E 104°04'3 6.0
2018-May-31 05:59N 01°17' E 104°07'3 6.0
2018-May-31 05:28N 01°17' E 104°10'3 5.9
2018-May-31 05:00N 01°17' E 104°13'3 6.3
2018-May-31 04:29N 01°18' E 104°16'3 7.0
2018-May-31 04:00N 01°19' E 104°19'3 6.3
2018-May-31 03:29N 01°21' E 104°22'4 8.4
2018-May-31 02:59N 01°23' E 104°25'611.1
2018-May-31 02:27N 01°27' E 104°30'4111.3
2018-May-30 22:49N 02°04' E 104°48'  
Track history (hours):
 
Tides and Currents Weather Stations Pressure Air Temp Water Temp Dewpoint Dewpoint Depression Visibility Wind Speed Wind Dir Waves Ship Positions

Silver Ginny

Last reported at 2018-Jun-01 08:07 UTC. Time now 2018-Jun-23 15:28 UTC.
Position N 01°30' E 103°08'.
Warning: this ship's position is 22 days out of date.

Length 183 m; draft 11.5 m.

Type: Tanker. MMSI: 538005462.

Date/timePositionNaut miles runAvg speedWind from/ knotsBaromVisibWave heightAir tempDewpointWater temp
2018-Jun-01 08:07N 01°30' E 103°08'513.5
2018-Jun-01 07:46N 01°27' E 103°11'313.1
2018-Jun-01 07:30N 01°25' E 103°14'712.9
2018-Jun-01 06:58N 01°20' E 103°19'612.1
2018-Jun-01 06:27N 01°16' E 103°23'510.8
2018-Jun-01 05:59N 01°13' E 103°28'510.4
2018-Jun-01 05:29N 01°12' E 103°33'510.2
2018-Jun-01 04:59N 01°11' E 103°38'510.2
2018-Jun-01 04:30N 01°09' E 103°42'5 9.5
2018-Jun-01 04:00N 01°10' E 103°47'510.3
2018-Jun-01 03:30N 01°12' E 103°51'510.5
2018-Jun-01 03:00N 01°15' E 103°56'3 5.6
2018-Jun-01 02:30N 01°17' E 103°58'1 0.9
2018-Jun-01 01:58N 01°17' E 103°58'0 0.0
2018-Jun-01 01:19N 01°17' E 103°58'0 0.2
2018-Jun-01 00:57N 01°17' E 103°58'0 0.0
2018-Jun-01 00:28N 01°17' E 103°58'0 0.0
2018-May-31 23:51N 01°17' E 103°58'0 0.2
2018-May-31 23:27N 01°17' E 103°58'0 0.1
2018-May-31 22:57N 01°17' E 103°58'0 0.0
2018-May-31 22:30N 01°17' E 103°58'0 0.0
2018-May-31 21:57N 01°17' E 103°58'0 0.0
2018-May-31 21:22N 01°17' E 103°58'0 0.0
2018-May-31 20:57N 01°17' E 103°58'0 0.0
2018-May-31 20:28N 01°17' E 103°58'0 0.0
2018-May-31 19:58N 01°17' E 103°58'0 0.0
2018-May-31 19:28N 01°17' E 103°58'0 0.0
2018-May-31 18:57N 01°17' E 103°58'0 0.1
2018-May-31 18:24N 01°17' E 103°58'0 0.0
2018-May-31 18:00N 01°17' E 103°58'0 0.0
2018-May-31 17:25N 01°17' E 103°58'0 0.0
2018-May-31 16:58N 01°17' E 103°58'0 0.4
2018-May-31 16:28N 01°17' E 103°58'0 0.1
2018-May-31 15:51N 01°17' E 103°58'0 0.0
2018-May-31 15:22N 01°17' E 103°58'0 0.2
2018-May-31 15:00N 01°17' E 103°58'0 0.0
2018-May-31 14:30N 01°17' E 103°58'0 0.0
2018-May-31 13:57N 01°17' E 103°58'0 0.0
2018-May-31 13:07N 01°17' E 103°58'0 0.0
2018-May-31 12:58N 01°17' E 103°58'0 0.0
2018-May-31 12:28N 01°17' E 103°58'0 0.0
2018-May-31 11:57N 01°17' E 103°58'0 0.0
2018-May-31 11:30N 01°17' E 103°58'0 0.0
2018-May-31 10:46N 01°17' E 103°58'0 0.0
2018-May-31 10:19N 01°17' E 103°58'0 0.0
2018-May-31 09:55N 01°17' E 103°58'0 0.0
2018-May-31 09:25N 01°17' E 103°58'0 0.0
2018-May-31 08:52N 01°17' E 103°58'0 0.0
2018-May-31 08:28N 01°17' E 103°58'0 0.2
2018-May-31 08:00N 01°17' E 103°58'1 2.8
2018-May-31 07:30N 01°16' E 103°58'3 5.8
2018-May-31 07:00N 01°16' E 104°01'3 6.2
2018-May-31 06:30N 01°16' E 104°04'3 6.0
2018-May-31 05:59N 01°17' E 104°07'3 6.0
2018-May-31 05:28N 01°17' E 104°10'3 5.9
2018-May-31 05:00N 01°17' E 104°13'3 6.3
2018-May-31 04:29N 01°18' E 104°16'3 7.0
2018-May-31 04:00N 01°19' E 104°19'3 6.3
2018-May-31 03:29N 01°21' E 104°22'4 8.4
2018-May-31 02:59N 01°23' E 104°25'611.1
2018-May-31 02:27N 01°27' E 104°30'4111.3
2018-May-30 22:49N 02°04' E 104°48'  

Dump ship's entire track history